桃園國際機場 - 塔臺(二站)

METAR RCTP 242330Z 03015KT 5000 -RA FEW006 BKN015 BKN025 22/19 Q1018 NOSIG RMK A3007=

站台狀態:Offline
最後更新:2021-10-25 07:30:02